MDT,Max TemperatureF,Mean TemperatureF,Min TemperatureF,Max Dew PointF,MeanDew PointF,Min DewpointF,Max Humidity, Mean Humidity, Min Humidity, Max Sea Level PressureIn, Mean Sea Level PressureIn, Min Sea Level PressureIn, Max VisibilityMiles, Mean VisibilityMiles, Min VisibilityMiles, Max Wind SpeedMPH, Mean Wind SpeedMPH, Max Gust SpeedMPH,PrecipitationIn, CloudCover, Events, WindDirDegrees
2011-9-1,63,54,44,52,49,43,93,75,56,30.05,29.99,29.81,,,,15,8,20,0.00,,,312
2011-9-2,79,59,39,49,40,31,93,56,18,30.14,29.97,29.83,,,,38,14,45,0.00,,,287
2011-9-3,68,54,39,42,38,34,82,56,29,30.31,30.27,30.14,,,,20,8,25,0.00,,,303
2011-9-4,78,55,32,37,31,28,85,51,16,30.32,30.16,29.94,,,,18,7,26,0.00,,,164
2011-9-5,90,64,38,36,31,24,70,40,9,29.92,29.88,29.84,,,,16,4,28,0.00,,,315
2011-9-6,92,68,43,38,31,27,58,34,10,30.15,30.04,29.92,,,,13,4,16,0.00,,,294
2011-9-7,91,67,42,38,34,28,70,41,11,30.29,30.24,30.15,,,,9,5,12,0.00,,,102
2011-9-8,91,67,43,41,36,33,70,42,14,30.28,30.21,30.14,,,,14,4,17,0.00,,,66
2011-9-9,88,67,46,41,36,31,65,39,13,30.20,30.15,30.10,,,,16,5,21,0.00,,,317
2011-9-10,88,66,43,42,37,35,70,44,17,30.13,30.07,30.02,,,,13,4,17,0.00,,,335
2011-9-11,91,68,44,39,35,31,70,41,12,30.02,29.91,29.79,,,,15,5,20,0.00,,,269
2011-9-12,71,60,48,46,41,34,77,55,33,30.20,30.08,29.83,,,,30,8,37,0.00,,,2
2011-9-13,63,53,42,49,37,33,89,62,34,30.35,30.24,30.12,,,,18,8,23,0.01,,,359
2011-9-14,61,50,39,36,24,20,65,43,20,30.44,30.34,30.17,,,,18,10,25,0.00,,,103
2011-9-15,73,58,42,43,40,32,82,58,33,30.15,29.94,29.79,,,,22,11,28,0.00,,,140
2011-9-16,80,63,46,55,44,40,84,55,25,29.79,29.76,29.73,,,,18,7,24,0.03,,,87
2011-9-17,72,59,45,56,39,26,93,56,19,29.94,29.82,29.76,,,,21,7,29,0.00,,,278
2011-9-18,72,55,37,36,31,27,64,43,22,30.08,30.03,29.96,,,,21,8,26,0.00,,,277
2011-9-19,77,58,39,51,40,34,93,60,27,30.07,29.94,29.73,,,,41,13,51,0.06,,,296
2011-9-20,64,50,35,41,37,34,92,64,36,30.25,30.19,30.08,,,,24,12,31,0.00,,,303
2011-9-21,69,49,29,39,31,28,96,59,22,30.29,30.22,30.11,,,,14,3,18,0.00,,,176
2011-9-22,87,60,33,35,32,27,89,50,11,30.09,29.99,29.92,,,,18,5,21,0.00,,,275
2011-9-23,90,67,43,41,35,31,70,42,14,30.01,29.96,29.91,,,,20,7,25,0.00,,,286
2011-9-24,93,70,47,40,32,19,61,34,7,29.98,29.91,29.86,,,,13,5,16,0.00,,,291
2011-9-25,93,68,42,33,28,21,62,35,8,29.85,29.74,29.64,,,,16,5,20,0.00,,,209
2011-9-26,79,62,45,39,33,29,50,34,17,29.98,29.86,29.64,,,,24,9,31,0.00,,,298
2011-9-27,89,66,42,40,34,31,67,40,13,29.98,29.91,29.83,,,,21,4,25,0.00,,,254
2011-9-28,74,58,41,42,33,21,68,44,19,30.34,30.08,29.84,,,,28,12,37,0.00,,,315
2011-9-29,68,50,32,30,25,21,75,47,18,30.51,30.36,30.22,,,,16,5,20,0.00,,,202
2011-9-30,90,67,44,34,27,19,37,25,12,30.17,29.94,29.81,,,,14,5,16,0.00,,,166